Time;durP1;ratioP1;P1;durP2;ratioP2;P2;SDS_P1;SDS_P2;PMS_P1;PMS_P2;Temp;Humidity;BMP_temperature;BMP_pressure;BME280_temperature;BME280_humidity;BME280_pressure;Samples;Min_cycle;Max_cycle;Signal;HPM_P1;HPM_P2
2021/04/14 00:00:20;;;;;;;1.07;0.50;;;;;;;;;;10252558;28;20056;-66
2021/04/14 00:05:19;;;;;;;6.28;1.25;;;;;;;;;;10262012;28;20045;-66
2021/04/14 00:10:26;;;;;;;14.18;0.60;;;;;;;;;;10254853;28;20049;-65
2021/04/14 00:15:27;;;;;;;10.85;0.57;;;;;;;;;;10254126;28;20044;-65
2021/04/14 00:20:25;;;;;;;2.85;0.60;;;;;;;;;;10275499;28;20463;-63
2021/04/14 00:25:27;;;;;;;2.00;0.73;;;;;;;;;;10294566;28;20403;-65
2021/04/14 00:30:25;;;;;;;3.53;0.70;;;;;;;;;;10289020;28;20069;-66
2021/04/14 00:35:24;;;;;;;0.80;0.80;;;;;;;;;;10306516;28;20546;-66
2021/04/14 00:40:35;;;;;;;1.52;0.30;;;;;;;;;;10305517;28;20440;-65
2021/04/14 00:45:33;;;;;;;3.70;0.55;;;;;;;;;;10303540;28;20051;-65
2021/04/14 00:50:30;;;;;;;6.47;1.03;;;;;;;;;;10305784;28;20041;-64
2021/04/14 00:55:29;;;;;;;2.07;0.50;;;;;;;;;;10300663;28;20044;-64
2021/04/14 01:00:31;;;;;;;6.82;0.70;;;;;;;;;;10307789;28;20048;-65
2021/04/14 01:05:30;;;;;;;0.25;0.25;;;;;;;;;;10306096;28;20040;-65
2021/04/14 01:10:28;;;;;;;0.30;0.30;;;;;;;;;;10286267;28;20041;-66
2021/04/14 01:15:27;;;;;;;1.93;0.47;;;;;;;;;;10259298;28;20037;-66
2021/04/14 01:20:25;;;;;;;0.68;0.43;;;;;;;;;;10264797;28;20353;-63
2021/04/14 01:25:25;;;;;;;3.00;0.53;;;;;;;;;;10283504;28;20397;-61
2021/04/14 01:30:24;;;;;;;3.83;0.73;;;;;;;;;;10300126;28;20296;-64
2021/04/14 01:35:23;;;;;;;1.17;0.20;;;;;;;;;;10308192;28;20044;-66
2021/04/14 01:40:22;;;;;;;1.50;0.60;;;;;;;;;;10284297;28;20081;-64
2021/04/14 01:45:19;;;;;;;;;;;;;;;;;;10308270;28;20036;-64
2021/04/14 01:50:17;;;;;;;0.63;0.38;;;;;;;;;;10311850;28;19928;-63
2021/04/14 01:55:14;;;;;;;4.93;0.43;;;;;;;;;;10315591;28;20064;-63
2021/04/14 02:00:21;;;;;;;0.20;0.20;;;;;;;;;;10313400;28;20510;-63
2021/04/14 02:05:21;;;;;;;1.52;0.68;;;;;;;;;;10314304;28;20534;-63
2021/04/14 02:10:19;;;;;;;2.55;0.47;;;;;;;;;;10308453;28;20029;-65
2021/04/14 02:15:19;;;;;;;18.53;0.83;;;;;;;;;;10297636;28;20038;-65
2021/04/14 02:20:17;;;;;;;4.47;0.90;;;;;;;;;;10283948;28;20072;-65
2021/04/14 02:25:15;;;;;;;0.60;0.60;;;;;;;;;;10309036;28;20434;-65
2021/04/14 02:30:18;;;;;;;0.17;0.17;;;;;;;;;;10316944;28;20029;-65
2021/04/14 02:35:15;;;;;;;7.10;0.77;;;;;;;;;;10309117;28;20132;-64
2021/04/14 02:40:13;;;;;;;0.47;0.30;;;;;;;;;;10306263;28;20033;-64
2021/04/14 02:45:14;;;;;;;0.20;0.20;;;;;;;;;;10306835;28;20104;-63
2021/04/14 02:50:11;;;;;;;2.30;0.40;;;;;;;;;;10309190;28;20128;-63
2021/04/14 02:55:09;;;;;;;0.20;0.20;;;;;;;;;;10316795;28;20051;-64
2021/04/14 03:00:08;;;;;;;0.52;0.40;;;;;;;;;;10321023;28;20675;-63
2021/04/14 03:05:07;;;;;;;0.20;0.20;;;;;;;;;;10306224;28;20056;-64
2021/04/14 03:10:04;;;;;;;;;;;;;;;;;;10316547;28;20394;-63
2021/04/14 03:15:02;;;;;;;3.20;0.55;;;;;;;;;;10315222;28;19966;-61
2021/04/14 03:19:59;;;;;;;0.50;0.28;;;;;;;;;;10316270;28;20040;-62
2021/04/14 03:24:57;;;;;;;1.83;0.60;;;;;;;;;;10307544;28;20033;-62
2021/04/14 03:29:54;;;;;;;9.23;0.80;;;;;;;;;;10318608;28;20041;-63
2021/04/14 03:34:52;;;;;;;0.40;0.30;;;;;;;;;;10303439;28;20045;-63
2021/04/14 03:39:49;;;;;;;0.70;0.70;;;;;;;;;;10311335;28;20044;-63
2021/04/14 03:44:51;;;;;;;0.47;0.47;;;;;;;;;;10308399;28;20047;-62
2021/04/14 03:49:50;;;;;;;0.47;0.47;;;;;;;;;;10309187;28;20726;-64
2021/04/14 03:54:48;;;;;;;3.78;0.50;;;;;;;;;;10306347;28;20083;-65
2021/04/14 03:59:45;;;;;;;0.30;0.30;;;;;;;;;;10313064;28;20394;-63
2021/04/14 04:04:43;;;;;;;0.90;0.50;;;;;;;;;;10307828;28;20394;-64
2021/04/14 04:09:40;;;;;;;2.70;0.20;;;;;;;;;;10316795;28;20113;-64
2021/04/14 04:14:47;;;;;;;2.40;0.77;;;;;;;;;;10317291;28;20617;-64
2021/04/14 04:19:44;;;;;;;1.27;0.63;;;;;;;;;;10312590;28;20043;-64
2021/04/14 04:24:41;;;;;;;2.43;0.50;;;;;;;;;;10293261;28;20039;-63
2021/04/14 04:29:39;;;;;;;1.80;0.73;;;;;;;;;;10301102;28;20045;-61
2021/04/14 04:34:36;;;;;;;5.33;1.40;;;;;;;;;;10304248;28;20048;-61
2021/04/14 04:39:34;;;;;;;10.50;0.77;;;;;;;;;;10299536;28;20096;-62
2021/04/14 04:44:31;;;;;;;0.30;0.30;;;;;;;;;;10302333;28;20029;-61
2021/04/14 04:49:28;;;;;;;0.87;0.50;;;;;;;;;;10303804;28;20059;-61
2021/04/14 04:54:26;;;;;;;0.30;0.27;;;;;;;;;;10298015;28;20120;-61
2021/04/14 04:59:23;;;;;;;0.30;0.30;;;;;;;;;;10304503;28;20037;-61
2021/04/14 05:04:21;;;;;;;0.60;0.50;;;;;;;;;;10305564;28;20032;-64
2021/04/14 05:09:18;;;;;;;1.30;0.63;;;;;;;;;;10299974;28;20410;-65
2021/04/14 05:14:16;;;;;;;1.07;0.20;;;;;;;;;;10308995;28;20036;-66
2021/04/14 05:19:13;;;;;;;0.90;0.60;;;;;;;;;;10313377;28;20048;-66
2021/04/14 05:24:11;;;;;;;0.20;0.20;;;;;;;;;;10307456;28;20029;-61
2021/04/14 05:29:09;;;;;;;1.63;0.60;;;;;;;;;;10309486;28;20037;-63
2021/04/14 05:34:07;;;;;;;0.57;0.57;;;;;;;;;;10305392;28;20037;-62
2021/04/14 05:39:04;;;;;;;1.75;0.57;;;;;;;;;;10299695;28;20482;-61
2021/04/14 05:44:02;;;;;;;0.20;0.20;;;;;;;;;;10307855;28;20581;-61
2021/04/14 05:49:00;;;;;;;0.27;0.27;;;;;;;;;;10306154;28;20280;-64
2021/04/14 05:54:00;;;;;;;2.45;0.38;;;;;;;;;;10295346;28;21110;-64
2021/04/14 05:58:57;;;;;;;0.43;0.43;;;;;;;;;;10278356;28;20688;-64
2021/04/14 06:03:55;;;;;;;0.87;0.53;;;;;;;;;;10288027;28;20784;-65
2021/04/14 06:08:52;;;;;;;2.33;0.60;;;;;;;;;;10293085;28;20095;-64
2021/04/14 06:13:50;;;;;;;2.07;0.93;;;;;;;;;;10307379;28;20256;-65
2021/04/14 06:18:48;;;;;;;1.70;0.83;;;;;;;;;;10303698;28;20040;-64
2021/04/14 06:23:46;;;;;;;5.07;0.93;;;;;;;;;;10304569;28;20473;-64
2021/04/14 06:28:44;;;;;;;1.05;0.80;;;;;;;;;;10289369;28;20127;-63
2021/04/14 06:33:43;;;;;;;2.10;0.37;;;;;;;;;;10285101;28;20033;-61
2021/04/14 06:38:46;;;;;;;6.35;0.95;;;;;;;;;;10271076;28;20051;-64
2021/04/14 06:44:04;;;;;;;5.78;1.00;;;;;;;;;;10277870;28;20040;-61
2021/04/14 06:49:05;;;;;;;1.77;0.70;;;;;;;;;;10271975;28;20045;-63
2021/04/14 06:54:05;;;;;;;1.30;0.95;;;;;;;;;;10290293;28;20082;-65
2021/04/14 06:59:04;;;;;;;0.90;0.52;;;;;;;;;;10284089;28;20072;-66
2021/04/14 07:04:04;;;;;;;3.17;0.68;;;;;;;;;;10293504;28;20076;-65
2021/04/14 07:09:02;;;;;;;4.43;1.17;;;;;;;;;;10279698;28;20048;-61
2021/04/14 07:13:59;;;;;;;3.57;1.03;;;;;;;;;;10279631;28;20033;-61
2021/04/14 07:19:09;;;;;;;2.73;0.47;;;;;;;;;;10286762;28;20049;-61
2021/04/14 07:24:15;;;;;;;3.65;0.63;;;;;;;;;;10289384;28;20510;-61
2021/04/14 07:29:18;;;;;;;1.63;0.60;;;;;;;;;;10294437;28;20206;-61
2021/04/14 07:34:22;;;;;;;1.23;0.40;;;;;;;;;;10306784;28;20103;-60
2021/04/14 07:39:20;;;;;;;1.70;0.70;;;;;;;;;;10307915;28;20122;-60
2021/04/14 07:44:34;;;;;;;0.83;0.40;;;;;;;;;;10297247;28;20126;-62
2021/04/14 07:49:33;;;;;;;3.65;0.65;;;;;;;;;;10295049;28;20075;-61
2021/04/14 07:54:57;;;;;;;1.65;0.68;;;;;;;;;;10292546;28;20473;-61
2021/04/14 07:59:55;;;;;;;1.35;0.32;;;;;;;;;;10286909;28;20568;-65
2021/04/14 08:05:03;;;;;;;1.13;0.43;;;;;;;;;;10294257;28;20452;-62
2021/04/14 08:10:08;;;;;;;2.95;0.70;;;;;;;;;;10300750;28;20110;-62
2021/04/14 08:15:11;;;;;;;1.02;0.40;;;;;;;;;;10295489;28;20045;-62
2021/04/14 08:20:16;;;;;;;1.55;0.40;;;;;;;;;;10297587;28;20049;-61
2021/04/14 08:25:13;;;;;;;0.28;0.28;;;;;;;;;;10293127;28;21082;-61
2021/04/14 08:30:14;;;;;;;0.80;0.20;;;;;;;;;;10299154;28;20047;-61
2021/04/14 08:35:11;;;;;;;1.50;0.20;;;;;;;;;;10302242;28;20168;-62
2021/04/14 08:40:20;;;;;;;0.20;0.20;;;;;;;;;;10286129;28;20045;-62
2021/04/14 08:45:20;;;;;;;0.30;0.20;;;;;;;;;;10297303;28;20125;-61
2021/04/14 08:50:23;;;;;;;1.90;0.40;;;;;;;;;;10310024;28;20179;-62
2021/04/14 08:55:23;;;;;;;1.73;0.73;;;;;;;;;;10280084;28;20033;-62
2021/04/14 09:00:21;;;;;;;2.67;0.50;;;;;;;;;;10277125;28;20114;-61
2021/04/14 09:05:20;;;;;;;0.83;0.40;;;;;;;;;;10302862;28;20607;-62
2021/04/14 09:10:37;;;;;;;0.60;0.45;;;;;;;;;;10296145;28;20048;-62
2021/04/14 09:16:07;;;;;;;1.60;0.30;;;;;;;;;;10303066;28;20541;-61
2021/04/14 09:21:06;;;;;;;0.63;0.30;;;;;;;;;;10269491;28;20417;-62
2021/04/14 09:26:12;;;;;;;1.63;0.60;;;;;;;;;;10257073;28;20072;-62
2021/04/14 09:31:14;;;;;;;2.95;0.40;;;;;;;;;;10258592;28;20131;-62
2021/04/14 09:36:12;;;;;;;2.90;0.40;;;;;;;;;;10278439;28;20041;-61
2021/04/14 09:41:30;;;;;;;0.20;0.20;;;;;;;;;;10295492;28;20042;-63
2021/04/14 09:46:31;;;;;;;1.65;0.68;;;;;;;;;;10289944;28;20032;-61
2021/04/14 09:51:32;;;;;;;1.50;0.40;;;;;;;;;;10269747;28;20033;-62
2021/04/14 09:56:33;;;;;;;1.45;0.30;;;;;;;;;;10252876;28;20519;-63
2021/04/14 10:01:35;;;;;;;1.55;0.50;;;;;;;;;;10262373;28;20045;-63
2021/04/14 10:06:33;;;;;;;0.47;0.20;;;;;;;;;;10274449;28;20066;-63
2021/04/14 10:11:39;;;;;;;0.70;0.20;;;;;;;;;;10273584;28;20065;-63
2021/04/14 10:16:36;;;;;;;3.35;0.40;;;;;;;;;;10266991;28;20128;-62
2021/04/14 10:21:36;;;;;;;0.20;0.20;;;;;;;;;;10263456;28;20491;-62
2021/04/14 10:26:38;;;;;;;5.38;0.50;;;;;;;;;;10271429;28;20037;-63
2021/04/14 10:31:37;;;;;;;0.55;0.30;;;;;;;;;;10267734;28;20033;-62
2021/04/14 10:36:34;;;;;;;;;;;;;;;;;;10275077;28;20133;-63
2021/04/14 10:41:32;;;;;;;1.23;0.32;;;;;;;;;;10269000;28;19927;-62
2021/04/14 10:46:32;;;;;;;1.57;0.40;;;;;;;;;;10254117;28;20048;-60
2021/04/14 10:51:31;;;;;;;2.80;0.60;;;;;;;;;;10268834;28;20057;-61
2021/04/14 10:56:32;;;;;;;1.15;0.40;;;;;;;;;;10258507;28;20037;-61
2021/04/14 11:01:37;;;;;;;3.88;2.33;;;;;;;;;;10267048;28;20037;-62
2021/04/14 11:06:35;;;;;;;0.43;0.25;;;;;;;;;;10259816;28;20045;-61
2021/04/14 11:11:34;;;;;;;1.13;0.73;;;;;;;;;;10294450;28;20025;-61
2021/04/14 11:16:33;;;;;;;1.38;0.60;;;;;;;;;;10306151;28;20037;-62
2021/04/14 11:21:31;;;;;;;1.20;0.30;;;;;;;;;;10304663;28;20091;-61
2021/04/14 11:26:28;;;;;;;1.20;0.43;;;;;;;;;;10309721;28;20530;-64
2021/04/14 11:31:34;;;;;;;2.63;0.30;;;;;;;;;;10302536;28;22112;-61
2021/04/14 11:36:33;;;;;;;0.90;0.60;;;;;;;;;;10287412;28;20033;-62
2021/04/14 11:41:33;;;;;;;2.45;0.57;;;;;;;;;;10285472;28;20124;-61
2021/04/14 11:46:38;;;;;;;6.13;0.77;;;;;;;;;;10300167;28;20041;-62
2021/04/14 11:51:35;;;;;;;0.70;0.20;;;;;;;;;;10301724;28;20030;-62
2021/04/14 11:56:37;;;;;;;1.17;0.30;;;;;;;;;;10298552;28;20430;-64
2021/04/14 12:01:35;;;;;;;1.60;0.60;;;;;;;;;;10309981;28;20582;-62
2021/04/14 12:06:32;;;;;;;0.60;0.20;;;;;;;;;;10275075;28;20094;-61
2021/04/14 12:11:30;;;;;;;2.37;0.40;;;;;;;;;;10269166;28;20431;-62
2021/04/14 12:16:28;;;;;;;0.30;0.27;;;;;;;;;;10268059;28;20583;-65
2021/04/14 12:21:25;;;;;;;2.63;0.43;;;;;;;;;;10268971;28;20040;-62
2021/04/14 12:26:22;;;;;;;0.40;0.20;;;;;;;;;;10276205;28;21188;-63
2021/04/14 12:31:20;;;;;;;1.27;0.20;;;;;;;;;;10270814;28;20128;-64
2021/04/14 12:36:17;;;;;;;1.40;0.37;;;;;;;;;;10268167;28;20049;-63
2021/04/14 12:41:15;;;;;;;1.20;0.30;;;;;;;;;;10274535;28;20041;-63
2021/04/14 12:46:12;;;;;;;0.93;0.23;;;;;;;;;;10275202;28;20049;-64
2021/04/14 12:51:22;;;;;;;1.10;0.20;;;;;;;;;;10271268;28;20041;-63
2021/04/14 12:56:28;;;;;;;1.15;0.30;;;;;;;;;;10247121;28;20045;-63
2021/04/14 13:01:25;;;;;;;0.85;0.15;;;;;;;;;;10271439;28;20515;-62
2021/04/14 13:06:35;;;;;;;0.20;0.20;;;;;;;;;;10284820;28;20026;-63
2021/04/14 13:11:39;;;;;;;0.63;0.25;;;;;;;;;;10272544;28;20041;-63
2021/04/14 13:16:44;;;;;;;1.13;0.20;;;;;;;;;;10286838;28;20056;-63
2021/04/14 13:21:41;;;;;;;0.43;0.10;;;;;;;;;;10277065;28;20033;-63
2021/04/14 13:26:44;;;;;;;1.13;0.27;;;;;;;;;;10281804;28;20958;-63
2021/04/14 13:31:45;;;;;;;3.55;0.40;;;;;;;;;;10280795;28;20059;-63
2021/04/14 13:36:45;;;;;;;0.82;0.20;;;;;;;;;;10281027;28;20049;-63
2021/04/14 13:41:49;;;;;;;0.65;0.20;;;;;;;;;;10279887;28;20037;-62
2021/04/14 13:47:25;;;;;;;0.82;0.30;;;;;;;;;;10280353;28;20084;-63
2021/04/14 13:52:24;;;;;;;0.63;0.20;;;;;;;;;;10188965;28;20039;-64
2021/04/14 13:57:28;;;;;;;1.25;0.40;;;;;;;;;;10259763;28;20068;-63
2021/04/14 14:02:25;;;;;;;3.67;0.20;;;;;;;;;;10274716;28;20061;-63
2021/04/14 14:07:46;;;;;;;0.40;0.20;;;;;;;;;;10273165;28;20124;-63
2021/04/14 14:12:43;;;;;;;0.45;0.20;;;;;;;;;;10273325;28;20984;-63
2021/04/14 14:17:42;;;;;;;2.87;0.30;;;;;;;;;;10274124;28;20041;-63
2021/04/14 14:22:41;;;;;;;1.30;0.20;;;;;;;;;;10312797;28;20124;-64
2021/04/14 14:27:39;;;;;;;2.50;0.30;;;;;;;;;;10304005;28;20051;-63
2021/04/14 14:32:37;;;;;;;0.38;0.25;;;;;;;;;;10317021;28;20037;-63
2021/04/14 14:37:38;;;;;;;0.67;0.30;;;;;;;;;;10321061;28;20673;-63
2021/04/14 14:42:40;;;;;;;0.93;0.20;;;;;;;;;;10266809;28;20072;-64
2021/04/14 14:47:40;;;;;;;0.80;0.30;;;;;;;;;;10267115;28;20092;-64
2021/04/14 14:52:40;;;;;;;0.73;0.22;;;;;;;;;;10267171;28;20061;-64
2021/04/14 14:57:38;;;;;;;1.23;0.30;;;;;;;;;;10267597;28;20041;-64
2021/04/14 15:02:36;;;;;;;;;;;;;;;;;;10306238;28;20201;-65
2021/04/14 15:07:35;;;;;;;1.63;0.30;;;;;;;;;;10304976;28;19956;-64
2021/04/14 15:12:32;;;;;;;1.70;0.50;;;;;;;;;;10311480;28;20122;-64
2021/04/14 15:17:30;;;;;;;0.63;0.20;;;;;;;;;;10311822;28;20048;-64
2021/04/14 15:22:28;;;;;;;1.13;0.30;;;;;;;;;;10304796;28;20150;-65
2021/04/14 15:27:30;;;;;;;1.48;0.40;;;;;;;;;;10289679;28;20037;-62
2021/04/14 15:32:28;;;;;;;2.20;0.40;;;;;;;;;;10299241;28;20495;-63
2021/04/14 15:37:25;;;;;;;;;;;;;;;;;;10298554;28;20102;-62
2021/04/14 15:42:24;;;;;;;1.13;0.30;;;;;;;;;;10306382;28;19940;-63
2021/04/14 15:47:30;;;;;;;1.33;0.45;;;;;;;;;;10298232;28;20797;-62
2021/04/14 15:52:28;;;;;;;1.40;0.40;;;;;;;;;;10297620;28;20080;-63
2021/04/14 15:57:28;;;;;;;1.02;0.50;;;;;;;;;;10291966;28;20041;-64
2021/04/14 16:02:26;;;;;;;1.05;0.43;;;;;;;;;;10299460;28;20041;-63
2021/04/14 16:07:24;;;;;;;1.13;0.52;;;;;;;;;;10294653;28;20040;-60
2021/04/14 16:12:22;;;;;;;1.90;0.70;;;;;;;;;;10295225;28;20037;-62
2021/04/14 16:17:19;;;;;;;1.20;0.70;;;;;;;;;;10299019;28;20037;-62
2021/04/14 16:22:17;;;;;;;1.80;0.50;;;;;;;;;;10301736;28;20037;-63
2021/04/14 16:27:15;;;;;;;0.90;0.40;;;;;;;;;;10298358;28;20033;-63
2021/04/14 16:32:12;;;;;;;0.50;0.50;;;;;;;;;;10302171;28;20643;-62
2021/04/14 16:37:13;;;;;;;1.70;0.53;;;;;;;;;;10305545;28;20306;-63
2021/04/14 16:42:10;;;;;;;1.77;0.93;;;;;;;;;;10293152;28;20037;-62
2021/04/14 16:47:08;;;;;;;0.80;0.33;;;;;;;;;;10293263;28;20061;-64
2021/04/14 16:52:05;;;;;;;2.20;0.53;;;;;;;;;;10291908;28;20040;-62
2021/04/14 16:57:03;;;;;;;1.27;0.40;;;;;;;;;;10308647;28;20387;-65
2021/04/14 17:02:00;;;;;;;1.57;0.67;;;;;;;;;;10298289;28;20049;-62
2021/04/14 17:06:58;;;;;;;2.50;0.97;;;;;;;;;;10305388;28;20819;-63
2021/04/14 17:11:55;;;;;;;0.93;0.47;;;;;;;;;;10315747;28;20041;-62
2021/04/14 17:16:53;;;;;;;6.33;1.07;;;;;;;;;;10291836;28;20060;-62
2021/04/14 17:21:50;;;;;;;3.07;0.57;;;;;;;;;;10310970;28;20036;-62
2021/04/14 17:26:48;;;;;;;2.10;0.57;;;;;;;;;;10301982;28;20426;-63
2021/04/14 17:31:46;;;;;;;3.50;0.63;;;;;;;;;;10301642;28;20041;-63
2021/04/14 17:36:44;;;;;;;1.35;0.43;;;;;;;;;;10294901;28;20037;-63
2021/04/14 17:41:42;;;;;;;1.85;0.85;;;;;;;;;;10307130;28;20056;-63
2021/04/14 17:46:39;;;;;;;4.70;1.00;;;;;;;;;;10289439;28;20120;-64
2021/04/14 17:51:37;;;;;;;4.13;0.93;;;;;;;;;;10301124;28;20573;-62
2021/04/14 17:56:35;;;;;;;2.83;0.57;;;;;;;;;;10304342;28;20202;-62
2021/04/14 18:01:33;;;;;;;2.22;0.82;;;;;;;;;;10297678;28;20678;-62
2021/04/14 18:06:30;;;;;;;7.30;1.20;;;;;;;;;;10301772;28;20170;-61
2021/04/14 18:11:28;;;;;;;3.87;1.17;;;;;;;;;;10298392;28;20037;-64
2021/04/14 18:16:25;;;;;;;4.53;1.13;;;;;;;;;;10298186;28;20067;-62
2021/04/14 18:21:23;;;;;;;5.20;1.03;;;;;;;;;;10302173;28;20597;-62
2021/04/14 18:26:20;;;;;;;6.40;1.03;;;;;;;;;;10301172;28;20033;-63
2021/04/14 18:31:18;;;;;;;4.87;0.93;;;;;;;;;;10298853;28;20525;-62
2021/04/14 18:36:16;;;;;;;4.47;0.80;;;;;;;;;;10303613;28;20052;-62
2021/04/14 18:41:14;;;;;;;3.25;0.90;;;;;;;;;;10300039;28;20131;-65
2021/04/14 18:46:11;;;;;;;2.27;0.97;;;;;;;;;;10293380;28;20035;-65
2021/04/14 18:51:09;;;;;;;5.07;0.73;;;;;;;;;;10299852;28;20041;-64
2021/04/14 18:56:06;;;;;;;6.40;0.97;;;;;;;;;;10297682;28;20995;-65
2021/04/14 19:01:04;;;;;;;13.30;1.27;;;;;;;;;;10290587;28;20575;-65
2021/04/14 19:06:01;;;;;;;5.30;1.10;;;;;;;;;;10299596;28;20033;-64
2021/04/14 19:10:59;;;;;;;2.20;1.03;;;;;;;;;;10289490;28;20461;-64
2021/04/14 19:15:57;;;;;;;5.83;1.50;;;;;;;;;;10297110;28;20503;-64
2021/04/14 19:20:54;;;;;;;1.83;0.83;;;;;;;;;;10300308;28;20651;-64
2021/04/14 19:25:52;;;;;;;3.40;1.17;;;;;;;;;;10295978;28;20044;-63
2021/04/14 19:30:51;;;;;;;1.70;1.00;;;;;;;;;;10283736;28;20048;-63
2021/04/14 19:35:48;;;;;;;4.45;1.02;;;;;;;;;;10288736;28;20038;-64
2021/04/14 19:40:46;;;;;;;6.97;1.33;;;;;;;;;;10297331;28;20037;-64
2021/04/14 19:45:44;;;;;;;2.42;0.82;;;;;;;;;;10299269;28;20395;-63
2021/04/14 19:50:44;;;;;;;3.80;0.97;;;;;;;;;;10300009;28;20032;-64
2021/04/14 19:55:41;;;;;;;2.63;1.00;;;;;;;;;;10301328;28;20462;-64
2021/04/14 20:00:39;;;;;;;4.50;0.90;;;;;;;;;;10296851;28;20429;-63
2021/04/14 20:05:37;;;;;;;2.35;1.00;;;;;;;;;;10302810;28;20137;-62
2021/04/14 20:10:36;;;;;;;1.90;0.30;;;;;;;;;;10289322;28;20579;-64
2021/04/14 20:15:36;;;;;;;1.85;0.63;;;;;;;;;;10307840;28;20070;-62
2021/04/14 20:20:34;;;;;;;4.78;1.10;;;;;;;;;;10285629;28;20505;-63
2021/04/14 20:25:33;;;;;;;2.50;1.27;;;;;;;;;;10289240;28;20521;-62
2021/04/14 20:30:30;;;;;;;2.13;1.55;;;;;;;;;;10294824;28;20060;-62
2021/04/14 20:35:28;;;;;;;1.97;0.67;;;;;;;;;;10287437;28;20064;-62
2021/04/14 20:40:26;;;;;;;5.87;0.80;;;;;;;;;;10286161;28;20059;-62
2021/04/14 20:45:23;;;;;;;2.53;0.95;;;;;;;;;;10292248;28;20140;-62
2021/04/14 20:50:23;;;;;;;1.67;0.77;;;;;;;;;;10295604;28;20045;-63
2021/04/14 20:55:20;;;;;;;2.17;0.65;;;;;;;;;;10293784;28;20493;-62
2021/04/14 21:00:19;;;;;;;1.30;0.73;;;;;;;;;;10301851;28;20430;-62
2021/04/14 21:05:16;;;;;;;1.33;0.52;;;;;;;;;;10296832;28;20596;-62
2021/04/14 21:10:15;;;;;;;2.40;0.57;;;;;;;;;;10300317;28;20449;-62
2021/04/14 21:15:14;;;;;;;4.32;1.30;;;;;;;;;;10296408;28;20081;-62
2021/04/14 21:20:13;;;;;;;1.48;0.75;;;;;;;;;;10296971;28;20059;-62
2021/04/14 21:25:11;;;;;;;1.98;0.90;;;;;;;;;;10300997;28;20047;-61
2021/04/14 21:30:10;;;;;;;3.53;1.13;;;;;;;;;;10296646;28;20047;-61
2021/04/14 21:35:07;;;;;;;3.53;0.65;;;;;;;;;;10293074;28;20582;-63
2021/04/14 21:40:06;;;;;;;8.93;0.70;;;;;;;;;;10292717;28;20510;-62
2021/04/14 21:45:04;;;;;;;6.75;0.70;;;;;;;;;;10303357;28;20044;-62
2021/04/14 21:50:02;;;;;;;0.30;0.30;;;;;;;;;;10304061;28;21235;-60
2021/04/14 21:54:59;;;;;;;4.57;0.73;;;;;;;;;;10298660;28;20059;-61
2021/04/14 21:59:57;;;;;;;1.33;0.57;;;;;;;;;;10288174;28;20051;-61
2021/04/14 22:04:54;;;;;;;0.93;0.40;;;;;;;;;;10296718;28;20033;-62
2021/04/14 22:09:52;;;;;;;2.40;0.43;;;;;;;;;;10296628;28;20564;-62
2021/04/14 22:14:49;;;;;;;2.43;1.13;;;;;;;;;;10296499;28;20065;-61
2021/04/14 22:19:47;;;;;;;0.13;0.13;;;;;;;;;;10282179;28;20056;-63
2021/04/14 22:24:44;;;;;;;1.77;0.40;;;;;;;;;;10296582;28;20044;-62
2021/04/14 22:29:41;;;;;;;2.53;0.80;;;;;;;;;;10299310;28;20045;-62
2021/04/14 22:34:39;;;;;;;2.10;0.90;;;;;;;;;;10297040;28;20037;-62
2021/04/14 22:39:36;;;;;;;0.40;0.40;;;;;;;;;;10294896;28;20168;-62
2021/04/14 22:44:33;;;;;;;0.57;0.40;;;;;;;;;;10297302;28;20045;-63
2021/04/14 22:49:31;;;;;;;3.10;0.70;;;;;;;;;;10297815;28;20491;-62
2021/04/14 22:54:28;;;;;;;1.27;0.83;;;;;;;;;;10296469;28;20574;-63
2021/04/14 22:59:26;;;;;;;2.43;2.00;;;;;;;;;;10296240;28;20089;-62
2021/04/14 23:04:24;;;;;;;1.73;0.93;;;;;;;;;;10298141;28;20029;-65
2021/04/14 23:09:21;;;;;;;1.00;0.80;;;;;;;;;;10283794;28;20033;-62
2021/04/14 23:14:19;;;;;;;1.53;1.00;;;;;;;;;;10295719;28;20087;-59
2021/04/14 23:19:17;;;;;;;0.23;0.23;;;;;;;;;;10295020;28;20037;-63
2021/04/14 23:24:14;;;;;;;2.43;0.70;;;;;;;;;;10296285;28;20775;-62
2021/04/14 23:29:12;;;;;;;1.17;0.87;;;;;;;;;;10293394;28;20041;-64
2021/04/14 23:34:09;;;;;;;0.10;0.10;;;;;;;;;;10297187;28;20037;-64
2021/04/14 23:39:06;;;;;;;0.30;0.30;;;;;;;;;;10300606;28;20098;-64
2021/04/14 23:44:04;;;;;;;0.40;0.40;;;;;;;;;;10297718;28;20117;-63
2021/04/14 23:49:03;;;;;;;4.53;0.77;;;;;;;;;;10293735;28;20506;-63
2021/04/14 23:54:00;;;;;;;;;;;;;;;;;;10294731;28;20095;-63
2021/04/14 23:58:57;;;;;;;0.45;0.45;;;;;;;;;;10297034;28;20345;-64
